Estación Meteorológica Peña el Pijo (Robertgarden) [ 09/23/18 03:00:45 CEST ]

Fecha Hora Presion(HPa) Temp (°C) Humedad % Rocio (°C) Viento ( m/s) Direccion Lluvia 1Hora(mm) Lluvia 24H(mm) LLuvia Total(mm)
2018-Jul-29 01:01:55 1011.700 18.9 37 3.8         269.36
2018-Jul-29 02:01:42 1011.500 18.2 39 4.0         269.36
2018-Jul-29 03:01:56 1011.100 17.4 38 2.9         269.36
2018-Jul-29 04:02:00 1010.900 15.0 42 2.1         269.36
2018-Jul-29 05:01:40 1010.800 12.6 48 1.8         269.36
2018-Jul-29 06:02:07 1010.700 12.6 42 -0.0         269.36
2018-Jul-29 07:02:06 1010.700 10.7 49 0.4         269.36
2018-Jul-29 08:01:51 1011.000 12.1 48 1.4         269.36
2018-Jul-29 09:01:53 1011.400 20.8 39 6.3         269.36
2018-Jul-29 10:01:37 1011.300 26.8 28 6.7         269.36
2018-Jul-29 11:01:37 1010.900 29.3 22 5.2         269.36
2018-Jul-29 12:01:56 1010.700 33.9 17 4.9         269.36
2018-Jul-29 13:01:58 1010.600 35.9 17 6.5         269.36
2018-Jul-29 14:01:42 1010.200 35.8 15 4.4         269.36
2018-Jul-29 15:02:19 1010.000 36.4 15 4.9         269.36
2018-Jul-29 16:01:55 1010.000 36.3 17 6.8         269.36
2018-Jul-29 17:01:43 1010.100 34.9 20 8.6         269.36
2018-Jul-29 18:01:43 1009.800 34.1 19 7.0         269.36
2018-Jul-29 19:01:37 1009.900 32.4 22 7.8         269.36
2018-Jul-29 20:01:46 1010.200 30.1 26 8.3         269.36
2018-Jul-29 21:01:46 1010.900 26.8 29 7.2         269.36
2018-Jul-29 22:01:54 1011.500 23.4 34 6.5         269.36
2018-Jul-29 23:01:41 1012.100 20.3 41 6.6         269.36

Temperatura Máxima:36°    Temperatura Mínima:10°
Presión Máxima:1012.100 Hpa    Presión Mínima:1009.800 Hpa


Volver